sensor_id;sensor_type;location;lat;lon;timestamp;P1;durP1;ratioP1;P2;durP2;ratioP2
37091;SDS011;23005;51.998;4.502;2022-12-20T00:00:23;7.70;;;4.28;;
37091;SDS011;23005;51.998;4.502;2022-12-20T00:01:44;8.80;;;3.97;;
37091;SDS011;23005;51.998;4.502;2022-12-20T00:03:05;11.85;;;5.03;;
37091;SDS011;23005;51.998;4.502;2022-12-20T00:04:25;11.48;;;4.53;;
37091;SDS011;23005;51.998;4.502;2022-12-20T00:05:46;10.73;;;4.50;;
37091;SDS011;23005;51.998;4.502;2022-12-20T00:07:07;8.38;;;4.63;;
37091;SDS011;23005;51.998;4.502;2022-12-20T00:08:27;8.23;;;4.30;;
37091;SDS011;23005;51.998;4.502;2022-12-20T00:09:48;10.25;;;4.10;;
37091;SDS011;23005;51.998;4.502;2022-12-20T00:11:08;10.87;;;4.17;;
37091;SDS011;23005;51.998;4.502;2022-12-20T00:12:30;8.15;;;4.18;;
37091;SDS011;23005;51.998;4.502;2022-12-20T00:13:50;10.43;;;4.82;;
37091;SDS011;23005;51.998;4.502;2022-12-20T00:15:11;13.30;;;4.93;;
37091;SDS011;23005;51.998;4.502;2022-12-20T00:16:32;9.00;;;4.30;;
37091;SDS011;23005;51.998;4.502;2022-12-20T00:17:53;8.75;;;4.20;;
37091;SDS011;23005;51.998;4.502;2022-12-20T00:19:14;10.27;;;4.43;;
37091;SDS011;23005;51.998;4.502;2022-12-20T00:20:35;10.43;;;5.07;;
37091;SDS011;23005;51.998;4.502;2022-12-20T00:21:56;11.52;;;4.70;;
37091;SDS011;23005;51.998;4.502;2022-12-20T00:23:16;10.73;;;4.70;;
37091;SDS011;23005;51.998;4.502;2022-12-20T00:24:37;6.93;;;4.07;;
37091;SDS011;23005;51.998;4.502;2022-12-20T00:26:01;13.10;;;4.60;;
37091;SDS011;23005;51.998;4.502;2022-12-20T00:27:22;11.95;;;4.32;;
37091;SDS011;23005;51.998;4.502;2022-12-20T00:28:43;10.48;;;4.60;;
37091;SDS011;23005;51.998;4.502;2022-12-20T00:30:04;10.43;;;4.22;;
37091;SDS011;23005;51.998;4.502;2022-12-20T00:31:27;11.52;;;4.35;;
37091;SDS011;23005;51.998;4.502;2022-12-20T00:32:51;9.35;;;4.13;;
37091;SDS011;23005;51.998;4.502;2022-12-20T00:34:11;10.00;;;4.13;;
37091;SDS011;23005;51.998;4.502;2022-12-20T00:35:32;9.95;;;4.50;;
37091;SDS011;23005;51.998;4.502;2022-12-20T00:36:53;9.43;;;4.35;;
37091;SDS011;23005;51.998;4.502;2022-12-20T00:38:13;13.00;;;4.72;;
37091;SDS011;23005;51.998;4.502;2022-12-20T00:39:34;9.48;;;4.13;;
37091;SDS011;23005;51.998;4.502;2022-12-20T00:40:58;11.18;;;4.40;;
37091;SDS011;23005;51.998;4.502;2022-12-20T00:42:19;11.70;;;4.85;;
37091;SDS011;23005;51.998;4.502;2022-12-20T00:43:40;14.87;;;4.97;;
37091;SDS011;23005;51.998;4.502;2022-12-20T00:45:01;11.25;;;5.00;;
37091;SDS011;23005;51.998;4.502;2022-12-20T00:46:22;13.45;;;4.95;;
37091;SDS011;23005;51.998;4.502;2022-12-20T00:47:43;10.35;;;4.90;;
37091;SDS011;23005;51.998;4.502;2022-12-20T00:49:05;12.10;;;4.72;;
37091;SDS011;23005;51.998;4.502;2022-12-20T00:50:26;13.23;;;5.05;;
37091;SDS011;23005;51.998;4.502;2022-12-20T00:51:47;9.02;;;4.65;;
37091;SDS011;23005;51.998;4.502;2022-12-20T00:53:07;10.07;;;5.20;;
37091;SDS011;23005;51.998;4.502;2022-12-20T00:54:28;10.00;;;4.72;;
37091;SDS011;23005;51.998;4.502;2022-12-20T00:55:49;15.80;;;5.68;;
37091;SDS011;23005;51.998;4.502;2022-12-20T00:57:09;10.83;;;4.90;;
37091;SDS011;23005;51.998;4.502;2022-12-20T00:58:30;13.23;;;5.10;;
37091;SDS011;23005;51.998;4.502;2022-12-20T00:59:51;8.52;;;4.90;;
37091;SDS011;23005;51.998;4.502;2022-12-20T01:01:14;11.68;;;5.25;;
37091;SDS011;23005;51.998;4.502;2022-12-20T01:02:37;15.07;;;5.32;;
37091;SDS011;23005;51.998;4.502;2022-12-20T01:03:57;16.25;;;5.45;;
37091;SDS011;23005;51.998;4.502;2022-12-20T01:05:20;11.88;;;5.28;;
37091;SDS011;23005;51.998;4.502;2022-12-20T01:06:40;12.45;;;5.03;;
37091;SDS011;23005;51.998;4.502;2022-12-20T01:08:01;13.10;;;5.57;;
37091;SDS011;23005;51.998;4.502;2022-12-20T01:09:21;11.13;;;4.70;;
37091;SDS011;23005;51.998;4.502;2022-12-20T01:10:42;12.10;;;5.05;;
37091;SDS011;23005;51.998;4.502;2022-12-20T01:12:02;12.00;;;5.30;;
37091;SDS011;23005;51.998;4.502;2022-12-20T01:13:24;12.93;;;4.68;;
37091;SDS011;23005;51.998;4.502;2022-12-20T01:14:44;12.90;;;4.93;;
37091;SDS011;23005;51.998;4.502;2022-12-20T01:16:05;13.68;;;4.93;;
37091;SDS011;23005;51.998;4.502;2022-12-20T01:17:26;8.73;;;4.90;;
37091;SDS011;23005;51.998;4.502;2022-12-20T01:18:47;13.73;;;5.37;;
37091;SDS011;23005;51.998;4.502;2022-12-20T01:21:31;10.70;;;4.80;;
37091;SDS011;23005;51.998;4.502;2022-12-20T01:22:51;15.10;;;5.43;;
37091;SDS011;23005;51.998;4.502;2022-12-20T01:24:12;11.83;;;4.67;;
37091;SDS011;23005;51.998;4.502;2022-12-20T01:25:34;11.43;;;5.03;;
37091;SDS011;23005;51.998;4.502;2022-12-20T01:26:54;11.45;;;4.47;;
37091;SDS011;23005;51.998;4.502;2022-12-20T01:28:15;9.88;;;4.90;;
37091;SDS011;23005;51.998;4.502;2022-12-20T01:29:36;13.38;;;4.65;;
37091;SDS011;23005;51.998;4.502;2022-12-20T01:30:56;8.32;;;4.38;;
37091;SDS011;23005;51.998;4.502;2022-12-20T01:32:16;12.27;;;5.32;;
37091;SDS011;23005;51.998;4.502;2022-12-20T01:33:37;11.35;;;4.88;;
37091;SDS011;23005;51.998;4.502;2022-12-20T01:34:58;11.23;;;4.72;;
37091;SDS011;23005;51.998;4.502;2022-12-20T01:36:19;17.05;;;5.32;;
37091;SDS011;23005;51.998;4.502;2022-12-20T01:37:43;11.13;;;4.95;;
37091;SDS011;23005;51.998;4.502;2022-12-20T01:39:04;11.95;;;4.90;;
37091;SDS011;23005;51.998;4.502;2022-12-20T01:40:26;11.73;;;4.72;;
37091;SDS011;23005;51.998;4.502;2022-12-20T01:41:47;10.27;;;5.18;;
37091;SDS011;23005;51.998;4.502;2022-12-20T01:43:08;15.68;;;5.90;;
37091;SDS011;23005;51.998;4.502;2022-12-20T01:46:12;10.73;;;5.25;;
37091;SDS011;23005;51.998;4.502;2022-12-20T01:47:32;12.68;;;5.40;;
37091;SDS011;23005;51.998;4.502;2022-12-20T01:48:55;12.70;;;5.72;;
37091;SDS011;23005;51.998;4.502;2022-12-20T01:50:18;17.35;;;6.47;;
37091;SDS011;23005;51.998;4.502;2022-12-20T01:51:40;11.95;;;6.18;;
37091;SDS011;23005;51.998;4.502;2022-12-20T01:53:06;11.80;;;5.95;;
37091;SDS011;23005;51.998;4.502;2022-12-20T01:54:27;14.18;;;5.78;;
37091;SDS011;23005;51.998;4.502;2022-12-20T01:55:50;10.75;;;6.22;;
37091;SDS011;23005;51.998;4.502;2022-12-20T01:57:12;13.63;;;6.32;;
37091;SDS011;23005;51.998;4.502;2022-12-20T01:58:35;11.93;;;5.85;;
37091;SDS011;23005;51.998;4.502;2022-12-20T01:59:58;13.80;;;6.13;;
37091;SDS011;23005;51.998;4.502;2022-12-20T02:01:19;10.82;;;6.22;;
37091;SDS011;23005;51.998;4.502;2022-12-20T02:02:40;12.98;;;5.90;;
37091;SDS011;23005;51.998;4.502;2022-12-20T02:04:01;16.05;;;6.13;;
37091;SDS011;23005;51.998;4.502;2022-12-20T02:05:22;11.90;;;5.32;;
37091;SDS011;23005;51.998;4.502;2022-12-20T02:06:43;13.75;;;5.95;;
37091;SDS011;23005;51.998;4.502;2022-12-20T02:08:05;13.20;;;6.47;;
37091;SDS011;23005;51.998;4.502;2022-12-20T02:09:26;9.35;;;5.85;;
37091;SDS011;23005;51.998;4.502;2022-12-20T02:10:50;10.57;;;5.75;;
37091;SDS011;23005;51.998;4.502;2022-12-20T02:12:20;12.88;;;6.25;;
37091;SDS011;23005;51.998;4.502;2022-12-20T02:13:44;11.98;;;6.28;;
37091;SDS011;23005;51.998;4.502;2022-12-20T02:15:16;12.10;;;6.03;;
37091;SDS011;23005;51.998;4.502;2022-12-20T02:16:44;11.80;;;6.00;;
37091;SDS011;23005;51.998;4.502;2022-12-20T02:18:15;13.07;;;5.90;;
37091;SDS011;23005;51.998;4.502;2022-12-20T02:19:45;18.75;;;6.50;;
37091;SDS011;23005;51.998;4.502;2022-12-20T02:21:30;11.73;;;5.88;;
37091;SDS011;23005;51.998;4.502;2022-12-20T02:22:59;11.68;;;5.75;;
37091;SDS011;23005;51.998;4.502;2022-12-20T02:24:35;10.77;;;6.00;;
37091;SDS011;23005;51.998;4.502;2022-12-20T02:26:17;13.10;;;6.43;;
37091;SDS011;23005;51.998;4.502;2022-12-20T02:27:58;12.32;;;6.10;;
37091;SDS011;23005;51.998;4.502;2022-12-20T02:29:22;11.18;;;6.15;;
37091;SDS011;23005;51.998;4.502;2022-12-20T02:30:46;10.85;;;6.63;;
37091;SDS011;23005;51.998;4.502;2022-12-20T02:32:11;16.20;;;6.32;;
37091;SDS011;23005;51.998;4.502;2022-12-20T02:33:35;9.40;;;5.70;;
37091;SDS011;23005;51.998;4.502;2022-12-20T02:34:56;10.80;;;6.28;;
37091;SDS011;23005;51.998;4.502;2022-12-20T02:36:16;13.75;;;6.63;;
37091;SDS011;23005;51.998;4.502;2022-12-20T02:37:45;13.25;;;6.40;;
37091;SDS011;23005;51.998;4.502;2022-12-20T02:39:07;9.18;;;5.82;;
37091;SDS011;23005;51.998;4.502;2022-12-20T02:41:51;13.75;;;5.43;;
37091;SDS011;23005;51.998;4.502;2022-12-20T02:43:13;12.77;;;5.95;;
37091;SDS011;23005;51.998;4.502;2022-12-20T02:44:35;10.48;;;6.15;;
37091;SDS011;23005;51.998;4.502;2022-12-20T02:45:59;10.88;;;5.38;;
37091;SDS011;23005;51.998;4.502;2022-12-20T02:47:23;12.68;;;6.10;;
37091;SDS011;23005;51.998;4.502;2022-12-20T02:48:46;12.02;;;5.88;;
37091;SDS011;23005;51.998;4.502;2022-12-20T02:50:09;14.40;;;6.13;;
37091;SDS011;23005;51.998;4.502;2022-12-20T02:51:30;11.75;;;5.78;;
37091;SDS011;23005;51.998;4.502;2022-12-20T02:52:52;12.30;;;5.63;;
37091;SDS011;23005;51.998;4.502;2022-12-20T02:54:12;9.67;;;5.60;;
37091;SDS011;23005;51.998;4.502;2022-12-20T02:55:37;9.63;;;5.55;;
37091;SDS011;23005;51.998;4.502;2022-12-20T02:57:02;12.52;;;6.20;;
37091;SDS011;23005;51.998;4.502;2022-12-20T02:58:25;14.07;;;5.97;;
37091;SDS011;23005;51.998;4.502;2022-12-20T02:59:54;12.07;;;5.72;;
37091;SDS011;23005;51.998;4.502;2022-12-20T03:01:21;14.68;;;5.93;;
37091;SDS011;23005;51.998;4.502;2022-12-20T03:02:43;10.88;;;5.53;;
37091;SDS011;23005;51.998;4.502;2022-12-20T03:04:05;11.63;;;5.95;;
37091;SDS011;23005;51.998;4.502;2022-12-20T03:05:26;11.25;;;5.35;;
37091;SDS011;23005;51.998;4.502;2022-12-20T03:06:58;14.18;;;5.57;;
37091;SDS011;23005;51.998;4.502;2022-12-20T03:08:19;12.50;;;5.43;;
37091;SDS011;23005;51.998;4.502;2022-12-20T03:09:42;12.13;;;5.60;;
37091;SDS011;23005;51.998;4.502;2022-12-20T03:11:03;15.40;;;6.38;;
37091;SDS011;23005;51.998;4.502;2022-12-20T03:12:24;17.27;;;5.80;;
37091;SDS011;23005;51.998;4.502;2022-12-20T03:13:44;12.82;;;4.93;;
37091;SDS011;23005;51.998;4.502;2022-12-20T03:15:05;12.45;;;5.28;;
37091;SDS011;23005;51.998;4.502;2022-12-20T03:17:48;12.32;;;5.35;;
37091;SDS011;23005;51.998;4.502;2022-12-20T03:19:09;10.00;;;5.35;;
37091;SDS011;23005;51.998;4.502;2022-12-20T03:20:30;9.40;;;5.10;;
37091;SDS011;23005;51.998;4.502;2022-12-20T03:21:51;11.35;;;5.35;;
37091;SDS011;23005;51.998;4.502;2022-12-20T03:23:11;11.18;;;5.20;;
37091;SDS011;23005;51.998;4.502;2022-12-20T03:24:32;8.88;;;4.95;;
37091;SDS011;23005;51.998;4.502;2022-12-20T03:25:52;9.70;;;5.30;;
37091;SDS011;23005;51.998;4.502;2022-12-20T03:27:13;9.68;;;5.03;;
37091;SDS011;23005;51.998;4.502;2022-12-20T03:28:34;8.48;;;4.93;;
37091;SDS011;23005;51.998;4.502;2022-12-20T03:29:55;10.38;;;5.32;;
37091;SDS011;23005;51.998;4.502;2022-12-20T03:31:15;12.15;;;4.93;;
37091;SDS011;23005;51.998;4.502;2022-12-20T03:32:37;12.50;;;5.35;;
37091;SDS011;23005;51.998;4.502;2022-12-20T03:33:57;9.57;;;5.05;;
37091;SDS011;23005;51.998;4.502;2022-12-20T03:35:18;10.13;;;4.65;;
37091;SDS011;23005;51.998;4.502;2022-12-20T03:36:39;9.75;;;4.70;;
37091;SDS011;23005;51.998;4.502;2022-12-20T03:38:00;8.30;;;4.55;;
37091;SDS011;23005;51.998;4.502;2022-12-20T03:39:20;14.32;;;5.40;;
37091;SDS011;23005;51.998;4.502;2022-12-20T03:40:40;8.35;;;4.60;;
37091;SDS011;23005;51.998;4.502;2022-12-20T03:42:01;9.07;;;4.43;;
37091;SDS011;23005;51.998;4.502;2022-12-20T03:43:22;11.95;;;4.72;;
37091;SDS011;23005;51.998;4.502;2022-12-20T03:44:42;9.48;;;5.07;;
37091;SDS011;23005;51.998;4.502;2022-12-20T03:46:03;12.07;;;4.80;;
37091;SDS011;23005;51.998;4.502;2022-12-20T03:47:24;15.35;;;5.05;;
37091;SDS011;23005;51.998;4.502;2022-12-20T03:48:46;13.70;;;5.00;;
37091;SDS011;23005;51.998;4.502;2022-12-20T03:50:06;8.52;;;4.43;;
37091;SDS011;23005;51.998;4.502;2022-12-20T03:51:29;13.02;;;4.80;;
37091;SDS011;23005;51.998;4.502;2022-12-20T03:52:50;12.63;;;4.60;;
37091;SDS011;23005;51.998;4.502;2022-12-20T03:54:10;12.95;;;4.70;;
37091;SDS011;23005;51.998;4.502;2022-12-20T03:55:31;11.05;;;4.72;;
37091;SDS011;23005;51.998;4.502;2022-12-20T03:56:52;8.38;;;4.15;;
37091;SDS011;23005;51.998;4.502;2022-12-20T03:58:12;8.95;;;4.30;;
37091;SDS011;23005;51.998;4.502;2022-12-20T03:59:33;10.02;;;4.18;;
37091;SDS011;23005;51.998;4.502;2022-12-20T04:00:55;9.73;;;4.82;;
37091;SDS011;23005;51.998;4.502;2022-12-20T04:02:16;9.07;;;4.20;;
37091;SDS011;23005;51.998;4.502;2022-12-20T04:03:36;9.02;;;3.95;;
37091;SDS011;23005;51.998;4.502;2022-12-20T04:04:59;11.82;;;4.38;;
37091;SDS011;23005;51.998;4.502;2022-12-20T04:06:19;8.02;;;4.20;;
37091;SDS011;23005;51.998;4.502;2022-12-20T04:07:40;9.30;;;4.15;;
37091;SDS011;23005;51.998;4.502;2022-12-20T04:09:01;9.68;;;4.53;;
37091;SDS011;23005;51.998;4.502;2022-12-20T04:10:22;9.63;;;3.97;;
37091;SDS011;23005;51.998;4.502;2022-12-20T04:11:42;11.38;;;4.47;;
37091;SDS011;23005;51.998;4.502;2022-12-20T04:13:03;11.48;;;4.50;;
37091;SDS011;23005;51.998;4.502;2022-12-20T04:14:23;9.23;;;4.60;;
37091;SDS011;23005;51.998;4.502;2022-12-20T04:15:44;13.27;;;4.93;;
37091;SDS011;23005;51.998;4.502;2022-12-20T04:17:05;10.65;;;4.90;;
37091;SDS011;23005;51.998;4.502;2022-12-20T04:18:25;8.25;;;4.90;;
37091;SDS011;23005;51.998;4.502;2022-12-20T04:19:46;12.82;;;4.85;;
37091;SDS011;23005;51.998;4.502;2022-12-20T04:21:08;11.38;;;4.65;;
37091;SDS011;23005;51.998;4.502;2022-12-20T04:22:29;12.25;;;5.38;;
37091;SDS011;23005;51.998;4.502;2022-12-20T04:23:49;10.85;;;5.03;;
37091;SDS011;23005;51.998;4.502;2022-12-20T04:25:10;16.42;;;5.72;;
37091;SDS011;23005;51.998;4.502;2022-12-20T04:26:31;9.65;;;4.75;;
37091;SDS011;23005;51.998;4.502;2022-12-20T04:27:51;8.43;;;4.78;;
37091;SDS011;23005;51.998;4.502;2022-12-20T04:29:12;11.27;;;5.15;;
37091;SDS011;23005;51.998;4.502;2022-12-20T04:30:32;13.73;;;5.57;;
37091;SDS011;23005;51.998;4.502;2022-12-20T04:31:53;10.13;;;5.07;;
37091;SDS011;23005;51.998;4.502;2022-12-20T04:33:13;11.15;;;4.85;;
37091;SDS011;23005;51.998;4.502;2022-12-20T04:34:34;10.60;;;4.85;;
37091;SDS011;23005;51.998;4.502;2022-12-20T04:35:55;14.43;;;5.80;;
37091;SDS011;23005;51.998;4.502;2022-12-20T04:37:17;10.10;;;5.15;;
37091;SDS011;23005;51.998;4.502;2022-12-20T04:38:37;11.40;;;5.63;;
37091;SDS011;23005;51.998;4.502;2022-12-20T04:39:58;15.30;;;6.00;;
37091;SDS011;23005;51.998;4.502;2022-12-20T04:41:18;11.75;;;5.43;;
37091;SDS011;23005;51.998;4.502;2022-12-20T04:42:39;10.55;;;5.00;;
37091;SDS011;23005;51.998;4.502;2022-12-20T04:44:00;9.73;;;5.43;;
37091;SDS011;23005;51.998;4.502;2022-12-20T04:45:20;8.98;;;5.00;;
37091;SDS011;23005;51.998;4.502;2022-12-20T04:46:41;9.45;;;5.70;;
37091;SDS011;23005;51.998;4.502;2022-12-20T04:48:02;10.70;;;5.93;;
37091;SDS011;23005;51.998;4.502;2022-12-20T04:49:43;10.95;;;5.05;;
37091;SDS011;23005;51.998;4.502;2022-12-20T04:51:03;11.23;;;5.22;;
37091;SDS011;23005;51.998;4.502;2022-12-20T04:52:25;10.33;;;5.13;;
37091;SDS011;23005;51.998;4.502;2022-12-20T04:53:46;9.93;;;5.10;;
37091;SDS011;23005;51.998;4.502;2022-12-20T04:55:07;9.30;;;4.85;;
37091;SDS011;23005;51.998;4.502;2022-12-20T04:56:28;9.20;;;5.13;;
37091;SDS011;23005;51.998;4.502;2022-12-20T04:57:49;14.60;;;5.53;;
37091;SDS011;23005;51.998;4.502;2022-12-20T04:59:10;12.07;;;5.20;;
37091;SDS011;23005;51.998;4.502;2022-12-20T05:00:30;12.68;;;4.70;;
37091;SDS011;23005;51.998;4.502;2022-12-20T05:01:51;11.75;;;5.13;;
37091;SDS011;23005;51.998;4.502;2022-12-20T05:03:11;7.38;;;4.78;;
37091;SDS011;23005;51.998;4.502;2022-12-20T05:04:32;10.00;;;4.88;;
37091;SDS011;23005;51.998;4.502;2022-12-20T05:05:57;9.45;;;4.93;;
37091;SDS011;23005;51.998;4.502;2022-12-20T05:07:17;10.20;;;4.57;;
37091;SDS011;23005;51.998;4.502;2022-12-20T05:08:39;7.82;;;5.00;;
37091;SDS011;23005;51.998;4.502;2022-12-20T05:10:00;9.85;;;4.68;;
37091;SDS011;23005;51.998;4.502;2022-12-20T05:11:20;10.45;;;4.97;;
37091;SDS011;23005;51.998;4.502;2022-12-20T05:12:41;12.15;;;4.97;;
37091;SDS011;23005;51.998;4.502;2022-12-20T05:14:02;12.18;;;4.82;;
37091;SDS011;23005;51.998;4.502;2022-12-20T05:15:22;9.02;;;4.95;;
37091;SDS011;23005;51.998;4.502;2022-12-20T05:16:43;8.38;;;5.20;;
37091;SDS011;23005;51.998;4.502;2022-12-20T05:18:04;11.80;;;5.00;;
37091;SDS011;23005;51.998;4.502;2022-12-20T05:19:24;9.68;;;4.43;;
37091;SDS011;23005;51.998;4.502;2022-12-20T05:20:45;12.55;;;4.82;;
37091;SDS011;23005;51.998;4.502;2022-12-20T05:22:06;9.13;;;4.80;;
37091;SDS011;23005;51.998;4.502;2022-12-20T05:23:28;9.02;;;4.70;;
37091;SDS011;23005;51.998;4.502;2022-12-20T05:24:50;10.10;;;4.68;;
37091;SDS011;23005;51.998;4.502;2022-12-20T05:26:11;12.63;;;4.90;;
37091;SDS011;23005;51.998;4.502;2022-12-20T05:27:31;13.57;;;5.67;;
37091;SDS011;23005;51.998;4.502;2022-12-20T05:28:52;9.13;;;4.65;;
37091;SDS011;23005;51.998;4.502;2022-12-20T05:30:13;8.15;;;4.28;;
37091;SDS011;23005;51.998;4.502;2022-12-20T05:31:33;11.35;;;4.50;;
37091;SDS011;23005;51.998;4.502;2022-12-20T05:32:54;10.90;;;4.72;;
37091;SDS011;23005;51.998;4.502;2022-12-20T05:34:14;10.70;;;5.00;;
37091;SDS011;23005;51.998;4.502;2022-12-20T05:35:35;10.27;;;4.63;;
37091;SDS011;23005;51.998;4.502;2022-12-20T05:36:56;14.85;;;4.85;;
37091;SDS011;23005;51.998;4.502;2022-12-20T05:38:16;13.80;;;5.10;;
37091;SDS011;23005;51.998;4.502;2022-12-20T05:39:37;12.02;;;5.18;;
37091;SDS011;23005;51.998;4.502;2022-12-20T05:41:02;13.95;;;6.20;;
37091;SDS011;23005;51.998;4.502;2022-12-20T05:42:22;11.63;;;5.07;;
37091;SDS011;23005;51.998;4.502;2022-12-20T05:43:43;11.05;;;5.20;;
37091;SDS011;23005;51.998;4.502;2022-12-20T05:45:04;10.50;;;5.43;;
37091;SDS011;23005;51.998;4.502;2022-12-20T05:47:46;11.75;;;5.50;;
37091;SDS011;23005;51.998;4.502;2022-12-20T05:50:27;14.43;;;5.78;;
37091;SDS011;23005;51.998;4.502;2022-12-20T05:51:48;12.48;;;5.10;;
37091;SDS011;23005;51.998;4.502;2022-12-20T05:53:09;15.45;;;5.50;;
37091;SDS011;23005;51.998;4.502;2022-12-20T05:54:31;13.55;;;5.32;;
37091;SDS011;23005;51.998;4.502;2022-12-20T05:55:51;11.82;;;5.43;;
37091;SDS011;23005;51.998;4.502;2022-12-20T05:57:15;10.18;;;5.07;;
37091;SDS011;23005;51.998;4.502;2022-12-20T05:58:35;13.82;;;5.63;;
37091;SDS011;23005;51.998;4.502;2022-12-20T05:59:56;12.50;;;5.35;;
37091;SDS011;23005;51.998;4.502;2022-12-20T06:01:17;8.52;;;5.03;;
37091;SDS011;23005;51.998;4.502;2022-12-20T06:02:37;10.30;;;5.53;;
37091;SDS011;23005;51.998;4.502;2022-12-20T06:03:58;8.63;;;5.07;;
37091;SDS011;23005;51.998;4.502;2022-12-20T06:05:19;13.15;;;4.85;;
37091;SDS011;23005;51.998;4.502;2022-12-20T06:06:40;9.20;;;5.05;;
37091;SDS011;23005;51.998;4.502;2022-12-20T06:08:01;13.67;;;5.20;;
37091;SDS011;23005;51.998;4.502;2022-12-20T06:09:21;12.02;;;5.03;;
37091;SDS011;23005;51.998;4.502;2022-12-20T06:10:42;9.05;;;4.63;;
37091;SDS011;23005;51.998;4.502;2022-12-20T06:12:03;12.02;;;4.93;;
37091;SDS011;23005;51.998;4.502;2022-12-20T06:13:25;8.30;;;4.68;;
37091;SDS011;23005;51.998;4.502;2022-12-20T06:14:46;8.27;;;4.50;;
37091;SDS011;23005;51.998;4.502;2022-12-20T06:16:07;13.23;;;4.88;;
37091;SDS011;23005;51.998;4.502;2022-12-20T06:17:27;11.82;;;4.55;;
37091;SDS011;23005;51.998;4.502;2022-12-20T06:18:48;9.80;;;5.00;;
37091;SDS011;23005;51.998;4.502;2022-12-20T06:20:08;13.32;;;4.72;;
37091;SDS011;23005;51.998;4.502;2022-12-20T06:21:29;12.18;;;4.93;;
37091;SDS011;23005;51.998;4.502;2022-12-20T06:22:50;11.93;;;4.55;;
37091;SDS011;23005;51.998;4.502;2022-12-20T06:24:11;13.82;;;4.60;;
37091;SDS011;23005;51.998;4.502;2022-12-20T06:25:32;10.10;;;4.72;;
37091;SDS011;23005;51.998;4.502;2022-12-20T06:26:52;9.05;;;4.75;;
37091;SDS011;23005;51.998;4.502;2022-12-20T06:28:13;11.75;;;4.97;;
37091;SDS011;23005;51.998;4.502;2022-12-20T06:29:35;10.95;;;4.65;;
37091;SDS011;23005;51.998;4.502;2022-12-20T06:30:56;14.65;;;4.75;;
37091;SDS011;23005;51.998;4.502;2022-12-20T06:32:18;9.90;;;4.30;;
37091;SDS011;23005;51.998;4.502;2022-12-20T06:33:38;8.77;;;4.38;;
37091;SDS011;23005;51.998;4.502;2022-12-20T06:34:59;8.60;;;4.60;;
37091;SDS011;23005;51.998;4.502;2022-12-20T06:36:20;13.25;;;4.65;;
37091;SDS011;23005;51.998;4.502;2022-12-20T06:37:42;8.45;;;4.32;;
37091;SDS011;23005;51.998;4.502;2022-12-20T06:39:02;9.00;;;4.25;;
37091;SDS011;23005;51.998;4.502;2022-12-20T06:40:28;9.82;;;4.40;;
37091;SDS011;23005;51.998;4.502;2022-12-20T06:41:49;13.95;;;4.35;;
37091;SDS011;23005;51.998;4.502;2022-12-20T06:43:10;10.57;;;4.60;;
37091;SDS011;23005;51.998;4.502;2022-12-20T06:44:30;13.65;;;4.72;;
37091;SDS011;23005;51.998;4.502;2022-12-20T06:45:53;12.60;;;4.30;;
37091;SDS011;23005;51.998;4.502;2022-12-20T06:47:16;8.27;;;4.03;;
37091;SDS011;23005;51.998;4.502;2022-12-20T06:48:36;10.68;;;4.10;;
37091;SDS011;23005;51.998;4.502;2022-12-20T06:49:57;14.63;;;4.60;;
37091;SDS011;23005;51.998;4.502;2022-12-20T06:51:18;9.68;;;3.65;;
37091;SDS011;23005;51.998;4.502;2022-12-20T06:52:38;10.23;;;4.57;;
37091;SDS011;23005;51.998;4.502;2022-12-20T06:53:59;9.23;;;4.18;;
37091;SDS011;23005;51.998;4.502;2022-12-20T06:55:20;8.82;;;4.03;;
37091;SDS011;23005;51.998;4.502;2022-12-20T06:56:41;14.25;;;4.20;;
37091;SDS011;23005;51.998;4.502;2022-12-20T06:58:02;9.50;;;3.72;;
37091;SDS011;23005;51.998;4.502;2022-12-20T06:59:22;8.95;;;3.83;;
37091;SDS011;23005;51.998;4.502;2022-12-20T07:00:45;9.32;;;4.45;;
37091;SDS011;23005;51.998;4.502;2022-12-20T07:02:08;10.45;;;4.35;;
37091;SDS011;23005;51.998;4.502;2022-12-20T07:03:29;8.98;;;3.95;;
37091;SDS011;23005;51.998;4.502;2022-12-20T07:04:50;14.27;;;4.65;;
37091;SDS011;23005;51.998;4.502;2022-12-20T07:06:10;8.95;;;3.78;;
37091;SDS011;23005;51.998;4.502;2022-12-20T07:07:32;8.32;;;3.92;;
37091;SDS011;23005;51.998;4.502;2022-12-20T07:08:59;10.90;;;3.83;;
37091;SDS011;23005;51.998;4.502;2022-12-20T07:10:20;6.30;;;3.53;;
37091;SDS011;23005;51.998;4.502;2022-12-20T07:11:41;7.25;;;3.90;;
37091;SDS011;23005;51.998;4.502;2022-12-20T07:13:02;11.30;;;3.97;;
37091;SDS011;23005;51.998;4.502;2022-12-20T07:14:23;7.57;;;3.97;;
37091;SDS011;23005;51.998;4.502;2022-12-20T07:15:45;7.38;;;3.58;;
37091;SDS011;23005;51.998;4.502;2022-12-20T07:17:06;9.18;;;4.15;;
37091;SDS011;23005;51.998;4.502;2022-12-20T07:18:27;10.05;;;3.58;;
37091;SDS011;23005;51.998;4.502;2022-12-20T07:19:48;10.85;;;3.72;;
37091;SDS011;23005;51.998;4.502;2022-12-20T07:21:10;9.45;;;4.10;;
37091;SDS011;23005;51.998;4.502;2022-12-20T07:22:30;7.45;;;3.95;;
37091;SDS011;23005;51.998;4.502;2022-12-20T07:23:51;8.88;;;3.78;;
37091;SDS011;23005;51.998;4.502;2022-12-20T07:25:12;10.13;;;3.70;;
37091;SDS011;23005;51.998;4.502;2022-12-20T07:26:32;12.77;;;4.13;;
37091;SDS011;23005;51.998;4.502;2022-12-20T07:27:53;10.20;;;3.78;;
37091;SDS011;23005;51.998;4.502;2022-12-20T07:29:13;13.45;;;4.18;;
37091;SDS011;23005;51.998;4.502;2022-12-20T07:30:35;13.98;;;3.95;;
37091;SDS011;23005;51.998;4.502;2022-12-20T07:31:56;8.75;;;3.65;;
37091;SDS011;23005;51.998;4.502;2022-12-20T07:33:18;13.30;;;4.50;;
37091;SDS011;23005;51.998;4.502;2022-12-20T07:34:39;13.82;;;3.78;;
37091;SDS011;23005;51.998;4.502;2022-12-20T07:36:00;6.22;;;3.95;;
37091;SDS011;23005;51.998;4.502;2022-12-20T07:37:22;16.02;;;5.22;;
37091;SDS011;23005;51.998;4.502;2022-12-20T07:38:43;10.02;;;4.20;;
37091;SDS011;23005;51.998;4.502;2022-12-20T07:40:04;10.57;;;4.43;;
37091;SDS011;23005;51.998;4.502;2022-12-20T07:41:25;14.90;;;5.10;;
37091;SDS011;23005;51.998;4.502;2022-12-20T07:42:46;7.20;;;4.63;;
37091;SDS011;23005;51.998;4.502;2022-12-20T07:44:08;11.63;;;4.10;;
37091;SDS011;23005;51.998;4.502;2022-12-20T07:45:28;11.05;;;4.70;;
37091;SDS011;23005;51.998;4.502;2022-12-20T07:46:49;11.95;;;3.95;;
37091;SDS011;23005;51.998;4.502;2022-12-20T07:48:10;15.75;;;5.18;;
37091;SDS011;23005;51.998;4.502;2022-12-20T07:49:40;9.98;;;4.75;;
37091;SDS011;23005;51.998;4.502;2022-12-20T07:51:01;9.00;;;3.90;;
37091;SDS011;23005;51.998;4.502;2022-12-20T07:52:23;12.27;;;4.72;;
37091;SDS011;23005;51.998;4.502;2022-12-20T07:53:46;12.90;;;4.45;;
37091;SDS011;23005;51.998;4.502;2022-12-20T07:55:09;10.60;;;4.45;;
37091;SDS011;23005;51.998;4.502;2022-12-20T07:56:30;10.73;;;4.35;;
37091;SDS011;23005;51.998;4.502;2022-12-20T07:58:00;14.68;;;4.57;;
37091;SDS011;23005;51.998;4.502;2022-12-20T07:59:24;9.88;;;4.35;;
37091;SDS011;23005;51.998;4.502;2022-12-20T08:00:47;11.52;;;5.45;;
37091;SDS011;23005;51.998;4.502;2022-12-20T08:02:10;12.13;;;4.65;;
37091;SDS011;23005;51.998;4.502;2022-12-20T08:03:35;11.57;;;4.93;;
37091;SDS011;23005;51.998;4.502;2022-12-20T08:04:59;10.85;;;4.20;;
37091;SDS011;23005;51.998;4.502;2022-12-20T08:06:19;9.90;;;4.90;;
37091;SDS011;23005;51.998;4.502;2022-12-20T08:07:40;11.10;;;4.90;;
37091;SDS011;23005;51.998;4.502;2022-12-20T08:09:03;12.38;;;4.45;;
37091;SDS011;23005;51.998;4.502;2022-12-20T08:10:24;11.40;;;4.45;;
37091;SDS011;23005;51.998;4.502;2022-12-20T08:11:46;12.13;;;4.30;;
37091;SDS011;23005;51.998;4.502;2022-12-20T08:13:07;15.32;;;4.70;;
37091;SDS011;23005;51.998;4.502;2022-12-20T08:14:28;8.80;;;4.45;;
37091;SDS011;23005;51.998;4.502;2022-12-20T08:15:49;7.40;;;4.28;;